LIML Airport Information

Runway Information
Runway 18L Length 8005 ft width 197 ft
Elevation 353 ft Threshold 0 ft Heading 176
Runway 36R Length 8005 ft Width 197 ft
Elevation 337 ft Threshold 0 ft Heading 356
Runway 18R Length 1972 ft width 72 ft
Elevation 353 ft Threshold 0 ft Heading 176
Runway 36L Length 1972 ft Width 72 ft
Elevation 349 ft Threshold 0 ft Heading 356
Airport Frequencies
Type APP Name MILANO APP Frequency 132.7 MHZ
Type ATIS Name ATIS Frequency 135.55 MHZ
Type DEP Name MILANO DEP Frequency 126.75 MHZ
Type GND Name GND Frequency 121.8 MHZ
Type TWR Name TWR Frequency 118.1 MHZ
Airport Navaids
Type VOR-DME Name Linate Frequency 112250 KHZ
Type NDB Name Linate Frequency 386 KHZ
Airport Weather Information & NOTAM
ADDS - METARS form results

(2131 UTC 28 January 2022)
Data provider http://aviationweather.gov/metar/data/
 
METAR text: LIML 282120Z 21004KT 170V250 CAVOK 02/M00 Q1028 NOSIG
Conditions at: LIML (MILANO/LINATE , IT) observed 2120 UTC 28 January 2022
Temperature: 2.0°C (36°F)
Dewpoint: 0.0°C (32°F) [RH = 87%]
Pressure (altimeter): 30.35 inches Hg (1028.0 mb)
Winds: from the SSW (210 degrees) at 5 MPH (4 knots; 2.1 m/s)
Visibility: 6 or more miles (10+ km)
Ceiling: ceiling and visibility are OK
Clouds: unknown
Weather: no significant weather observed at this time

METAR text: LIML 282050Z 11006KT 080V150 CAVOK 05/M00 Q1028 NOSIG
Conditions at: LIML (MILANO/LINATE , IT) observed 2050 UTC 28 January 2022
Temperature: 5.0°C (41°F)
Dewpoint: 0.0°C (32°F) [RH = 70%]
Pressure (altimeter): 30.35 inches Hg (1028.0 mb)
Winds: from the ESE (110 degrees) at 7 MPH (6 knots; 3.1 m/s)
Visibility: 6 or more miles (10+ km)
Ceiling: ceiling and visibility are OK
Clouds: unknown
Weather: no significant weather observed at this time

Forecast for: LIML (MILANO/LINATE , IT)
Text: TAF LIML 281700Z 2818/2918 VRB05KT CAVOK
Forecast period: 1800 UTC 28 January 2022 to 1800 UTC 29 January 2022
Forecast type: FROM: standard forecast or significant change
Winds: variable direction winds at 6 MPH (5 knots; 2.6 m/s)
Visibility: 6 or more miles (10+ km)
Ceiling: unknown
Clouds: missing
Weather: NSW  (no significant weather)
Text: BECMG 2818/2820 4000 BR
Forecast period: 1800 UTC 28 January 2022 to 1800 UTC 29 January 2022
Forecast type: BECOMING: Conditions expected to become as follows by 2000 UTC 28 January 2022
Winds: variable direction winds at 6 MPH (5 knots; 2.6 m/s)
Visibility: 2.49 miles (4.01 km)
Ceiling: unknown
Clouds: missing
Weather: BR  (mist)
Text: TEMPO 2900/2908 0800 BCFG
Forecast period: 0000 to 0800 UTC 29 January 2022
Forecast type: TEMPORARY: The following changes expected for less than half the time period
Visibility: 0.50 miles (0.80 km)
Ceiling: unknown
Clouds: missing
Weather: BCFG  (patches of fog)